DHK369 KJFK-EGNX
Flight info
| Callsign | DHK369 |
|---|---|
| Flight time | N/A |
| Altitude | 31000 |
| Route | GREKI DCT JUDDS DCT MARTN DCT TOPPS DCT RIKAL/M081F340 DCT 53N050W 54N040W 55N030W 55N020W DCT DOGAL DCT BEXET/N0465F350 DCT DEXEN UY124 DOLOP |
| Aircraft | B763/H-SDE3FGHIM3RWXY/LB1 |
Departure
| Time | 2026-05-07 11:56 |
|---|---|
| Airport | John F. Kennedy International Airport (KJFK) |
Arrival
| Time | N/A |
|---|---|
| Airport | East Midlands Airport (EGNX) |
| Time | Latitude | Longitude | Altitude | Speed | Heading |
|---|---|---|---|---|---|
| 2026-05-07 11:23 | 40.65742 | -73.78051 | 24 ft | 0 kts | 298° |
| 2026-05-07 11:41 | 40.65747 | -73.78058 | 24 ft | 1 kts | 327° |
| 2026-05-07 11:41 | 40.65756 | -73.78058 | 24 ft | 1 kts | 12° |
| 2026-05-07 11:42 | 40.65762 | -73.78049 | 24 ft | 1 kts | 63° |
| 2026-05-07 11:42 | 40.65758 | -73.78031 | 24 ft | 3 kts | 123° |
| 2026-05-07 11:42 | 40.65723 | -73.77990 | 24 ft | 6 kts | 120° |
| 2026-05-07 11:42 | 40.65713 | -73.77926 | 24 ft | 6 kts | 104° |
| 2026-05-07 11:43 | 40.65697 | -73.77870 | 24 ft | 6 kts | 117° |
| 2026-05-07 11:43 | 40.65672 | -73.77814 | 24 ft | 6 kts | 121° |
| 2026-05-07 11:43 | 40.65650 | -73.77768 | 24 ft | 2 kts | 121° |
| 2026-05-07 11:43 | 40.65650 | -73.77767 | 24 ft | 0 kts | 121° |
| 2026-05-07 11:44 | 40.65636 | -73.77739 | 24 ft | 10 kts | 125° |
| 2026-05-07 11:44 | 40.65601 | -73.77655 | 24 ft | 8 kts | 121° |
| 2026-05-07 11:44 | 40.65564 | -73.77652 | 24 ft | 6 kts | 206° |
| 2026-05-07 11:44 | 40.65514 | -73.77689 | 24 ft | 9 kts | 211° |
| 2026-05-07 11:45 | 40.65457 | -73.77734 | 24 ft | 8 kts | 211° |
| 2026-05-07 11:45 | 40.65408 | -73.77773 | 24 ft | 7 kts | 211° |
| 2026-05-07 11:45 | 40.65386 | -73.77788 | 24 ft | 0 kts | 204° |
| 2026-05-07 11:45 | 40.65385 | -73.77789 | 24 ft | 2 kts | 204° |
| 2026-05-07 11:46 | 40.65321 | -73.77744 | 24 ft | 14 kts | 120° |
| 2026-05-07 11:46 | 40.65270 | -73.77628 | 24 ft | 15 kts | 120° |
| 2026-05-07 11:46 | 40.65213 | -73.77497 | 24 ft | 16 kts | 120° |
| 2026-05-07 11:46 | 40.65158 | -73.77376 | 24 ft | 14 kts | 121° |
| 2026-05-07 11:47 | 40.65109 | -73.77268 | 24 ft | 12 kts | 121° |
| 2026-05-07 11:47 | 40.65066 | -73.77174 | 24 ft | 11 kts | 121° |
| 2026-05-07 11:47 | 40.65024 | -73.77082 | 24 ft | 11 kts | 121° |
| 2026-05-07 11:47 | 40.64981 | -73.76987 | 24 ft | 12 kts | 120° |
| 2026-05-07 11:48 | 40.64939 | -73.76894 | 24 ft | 11 kts | 120° |
| 2026-05-07 11:48 | 40.64897 | -73.76800 | 24 ft | 12 kts | 120° |
| 2026-05-07 11:48 | 40.64855 | -73.76705 | 24 ft | 11 kts | 120° |
| 2026-05-07 11:48 | 40.64817 | -73.76621 | 24 ft | 9 kts | 120° |
| 2026-05-07 11:49 | 40.64779 | -73.76566 | 24 ft | 6 kts | 163° |
| 2026-05-07 11:49 | 40.64735 | -73.76580 | 24 ft | 6 kts | 211° |
| 2026-05-07 11:49 | 40.64691 | -73.76615 | 24 ft | 8 kts | 211° |
| 2026-05-07 11:49 | 40.64627 | -73.76666 | 24 ft | 12 kts | 211° |
| 2026-05-07 11:50 | 40.64540 | -73.76733 | 24 ft | 15 kts | 210° |
| 2026-05-07 11:50 | 40.64452 | -73.76802 | 24 ft | 13 kts | 211° |
| 2026-05-07 11:50 | 40.64376 | -73.76862 | 24 ft | 11 kts | 211° |
| 2026-05-07 11:50 | 40.64309 | -73.76914 | 24 ft | 10 kts | 211° |
| 2026-05-07 11:51 | 40.64243 | -73.76966 | 24 ft | 11 kts | 211° |
| 2026-05-07 11:51 | 40.64175 | -73.77020 | 24 ft | 11 kts | 211° |
| 2026-05-07 11:51 | 40.64100 | -73.77079 | 24 ft | 13 kts | 211° |
| 2026-05-07 11:51 | 40.64013 | -73.77147 | 24 ft | 15 kts | 210° |
| 2026-05-07 11:52 | 40.63912 | -73.77224 | 24 ft | 17 kts | 210° |
| 2026-05-07 11:52 | 40.63809 | -73.77304 | 24 ft | 16 kts | 210° |
| 2026-05-07 11:52 | 40.63717 | -73.77375 | 24 ft | 14 kts | 211° |
| 2026-05-07 11:52 | 40.63635 | -73.77440 | 24 ft | 12 kts | 211° |
| 2026-05-07 11:53 | 40.63565 | -73.77496 | 24 ft | 11 kts | 211° |
| 2026-05-07 11:53 | 40.63499 | -73.77547 | 24 ft | 11 kts | 210° |
| 2026-05-07 11:53 | 40.63428 | -73.77602 | 24 ft | 11 kts | 210° |
| 2026-05-07 11:53 | 40.63356 | -73.77658 | 24 ft | 12 kts | 211° |
| 2026-05-07 11:54 | 40.63283 | -73.77716 | 24 ft | 12 kts | 211° |
| 2026-05-07 11:54 | 40.63209 | -73.77774 | 24 ft | 10 kts | 211° |
| 2026-05-07 11:54 | 40.63152 | -73.77820 | 24 ft | 10 kts | 211° |
| 2026-05-07 11:54 | 40.63121 | -73.77884 | 24 ft | 7 kts | 278° |
| 2026-05-07 11:55 | 40.63139 | -73.77931 | 24 ft | 2 kts | 301° |
| 2026-05-07 11:55 | 40.63158 | -73.77974 | 24 ft | 14 kts | 301° |
| 2026-05-07 11:55 | 40.63290 | -73.78260 | 24 ft | 61 kts | 301° |
| 2026-05-07 11:55 | 40.63593 | -73.78925 | 24 ft | 106 kts | 300° |
| 2026-05-07 11:56 | 40.64053 | -73.79921 | 24 ft | 146 kts | 300° |
| 2026-05-07 11:56 | 40.64630 | -73.81219 | 59 ft | 179 kts | 301° |
| 2026-05-07 11:56 | 40.65263 | -73.82669 | 439 ft | 188 kts | 302° |
| 2026-05-07 11:56 | 40.65726 | -73.84261 | 1064 ft | 192 kts | 278° |
| 2026-05-07 11:57 | 40.65502 | -73.86051 | 1475 ft | 211 kts | 249° |
| 2026-05-07 11:57 | 40.64545 | -73.87629 | 1849 ft | 232 kts | 220° |
| 2026-05-07 11:57 | 40.63018 | -73.88475 | 2303 ft | 250 kts | 194° |
| 2026-05-07 11:57 | 40.61270 | -73.88860 | 2771 ft | 261 kts | 191° |
| 2026-05-07 11:58 | 40.59391 | -73.88854 | 3163 ft | 283 kts | 169° |
| 2026-05-07 11:58 | 40.57565 | -73.87879 | 3921 ft | 284 kts | 155° |
| 2026-05-07 11:58 | 40.55808 | -73.86784 | 4782 ft | 282 kts | 159° |
| 2026-05-07 11:58 | 40.53980 | -73.85839 | 5572 ft | 277 kts | 175° |
| 2026-05-07 11:59 | 40.52132 | -73.85337 | 6414 ft | 277 kts | 165° |
| 2026-05-07 11:59 | 40.50489 | -73.83924 | 7114 ft | 295 kts | 138° |
| 2026-05-07 11:59 | 40.49397 | -73.81551 | 7715 ft | 314 kts | 110° |
| 2026-05-07 11:59 | 40.49105 | -73.78701 | 8390 ft | 324 kts | 91° |
| 2026-05-07 12:00 | 40.49538 | -73.75759 | 8951 ft | 332 kts | 64° |
| 2026-05-07 12:00 | 40.50814 | -73.73296 | 9550 ft | 332 kts | 38° |
| 2026-05-07 12:00 | 40.52727 | -73.71677 | 10099 ft | 326 kts | 11° |
| 2026-05-07 12:00 | 40.54944 | -73.71049 | 10500 ft | 330 kts | 1° |
| 2026-05-07 12:01 | 40.57249 | -73.70350 | 10738 ft | 355 kts | 10° |
| 2026-05-07 12:01 | 40.59663 | -73.69282 | 11102 ft | 373 kts | 13° |
| 2026-05-07 12:01 | 40.62182 | -73.68041 | 11399 ft | 393 kts | 15° |
| 2026-05-07 12:01 | 40.64777 | -73.66677 | 11689 ft | 412 kts | 16° |
| 2026-05-07 12:02 | 40.67479 | -73.65209 | 12263 ft | 422 kts | 17° |
| 2026-05-07 12:02 | 40.70183 | -73.63718 | 12980 ft | 427 kts | 16° |
| 2026-05-07 12:02 | 40.72951 | -73.62183 | 13621 ft | 434 kts | 16° |
| 2026-05-07 12:02 | 40.75730 | -73.60634 | 14296 ft | 440 kts | 16° |
| 2026-05-07 12:03 | 40.78547 | -73.59058 | 15022 ft | 443 kts | 16° |
| 2026-05-07 12:03 | 40.81427 | -73.57448 | 15677 ft | 448 kts | 15° |
| 2026-05-07 12:03 | 40.84305 | -73.55834 | 16341 ft | 453 kts | 15° |
| 2026-05-07 12:03 | 40.87226 | -73.54198 | 16930 ft | 459 kts | 15° |
| 2026-05-07 12:04 | 40.90153 | -73.52550 | 17674 ft | 461 kts | 15° |
| 2026-05-07 12:04 | 40.93156 | -73.50865 | 18243 ft | 467 kts | 15° |
| 2026-05-07 12:04 | 40.96133 | -73.49184 | 18912 ft | 469 kts | 14° |
| 2026-05-07 12:04 | 40.99198 | -73.47463 | 19357 ft | 477 kts | 14° |
| 2026-05-07 12:05 | 41.02233 | -73.45741 | 20070 ft | 478 kts | 13° |
| 2026-05-07 12:05 | 41.05360 | -73.43984 | 20553 ft | 484 kts | 13° |
| 2026-05-07 12:05 | 41.08491 | -73.42213 | 21118 ft | 488 kts | 13° |
| 2026-05-07 12:05 | 41.11622 | -73.40443 | 21608 ft | 494 kts | 13° |
| 2026-05-07 12:06 | 41.14716 | -73.38689 | 22171 ft | 497 kts | 12° |
| 2026-05-07 12:06 | 41.17956 | -73.36858 | 22554 ft | 504 kts | 12° |
| 2026-05-07 12:06 | 41.21196 | -73.35012 | 23274 ft | 503 kts | 12° |
| 2026-05-07 12:06 | 41.24391 | -73.33202 | 23586 ft | 512 kts | 12° |
| 2026-05-07 12:07 | 41.27670 | -73.31335 | 24135 ft | 512 kts | 13° |
| 2026-05-07 12:07 | 41.30699 | -73.29611 | 24456 ft | 519 kts | 12° |
| 2026-05-07 12:07 | 41.34033 | -73.27711 | 24965 ft | 521 kts | 12° |
| 2026-05-07 12:07 | 41.37400 | -73.25794 | 25246 ft | 529 kts | 12° |
| 2026-05-07 12:08 | 41.40799 | -73.23847 | 25844 ft | 529 kts | 12° |
| 2026-05-07 12:08 | 41.44196 | -73.21909 | 26089 ft | 537 kts | 12° |
| 2026-05-07 12:08 | 41.47674 | -73.19912 | 26696 ft | 536 kts | 12° |
| 2026-05-07 12:08 | 41.51178 | -73.17909 | 26947 ft | 544 kts | 12° |
| 2026-05-07 12:09 | 41.54679 | -73.15895 | 27451 ft | 545 kts | 12° |
| 2026-05-07 12:09 | 41.58243 | -73.13946 | 27625 ft | 545 kts | 6° |
| 2026-05-07 12:09 | 41.61892 | -73.12627 | 28027 ft | 531 kts | 357° |
| 2026-05-07 12:09 | 41.65477 | -73.12048 | 28488 ft | 512 kts | 347° |
| 2026-05-07 12:10 | 41.69036 | -73.12131 | 28608 ft | 502 kts | 339° |
| 2026-05-07 12:10 | 41.72471 | -73.12596 | 29057 ft | 500 kts | 338° |
| 2026-05-07 12:10 | 41.75940 | -73.13082 | 29488 ft | 499 kts | 337° |
| 2026-05-07 12:10 | 41.79357 | -73.13598 | 30216 ft | 492 kts | 336° |
| 2026-05-07 12:11 | 41.82791 | -73.14148 | 30684 ft | 490 kts | 336° |
| 2026-05-07 12:11 | 41.86132 | -73.14689 | 30920 ft | 486 kts | 336° |
| 2026-05-07 12:11 | 41.89522 | -73.15253 | 30874 ft | 482 kts | 335° |
| 2026-05-07 12:12 | 41.96141 | -73.16367 | 30879 ft | 478 kts | 335° |
| 2026-05-07 12:12 | 42.02780 | -73.17509 | 30883 ft | 488 kts | 335° |
| 2026-05-07 12:13 | 42.09521 | -73.18655 | 30884 ft | 484 kts | 335° |
| 2026-05-07 12:13 | 42.16210 | -73.19795 | 30850 ft | 479 kts | 335° |
| 2026-05-07 12:14 | 42.22812 | -73.20938 | 30868 ft | 482 kts | 336° |
| 2026-05-07 12:14 | 42.29503 | -73.22093 | 30868 ft | 485 kts | 336° |
| 2026-05-07 12:15 | 42.36143 | -73.23231 | 30864 ft | 480 kts | 336° |
| 2026-05-07 12:15 | 42.42824 | -73.24397 | 30902 ft | 486 kts | 336° |
| 2026-05-07 12:16 | 42.49672 | -73.25056 | 30893 ft | 512 kts | 349° |
| 2026-05-07 12:16 | 42.53271 | -73.24456 | 30903 ft | 529 kts | 357° |
| 2026-05-07 12:16 | 42.56876 | -73.23137 | 30887 ft | 543 kts | 6° |
| 2026-05-07 12:16 | 42.60404 | -73.21098 | 30907 ft | 558 kts | 17° |
| 2026-05-07 12:17 | 42.63829 | -73.18328 | 30910 ft | 577 kts | 25° |
| 2026-05-07 12:17 | 42.66992 | -73.14947 | 30894 ft | 591 kts | 34° |
| 2026-05-07 12:17 | 42.69898 | -73.10925 | 30904 ft | 598 kts | 43° |
| 2026-05-07 12:18 | 42.74497 | -73.01453 | 30893 ft | 606 kts | 63° |
| 2026-05-07 12:18 | 42.78348 | -72.91258 | 30871 ft | 605 kts | 53° |
| 2026-05-07 12:19 | 42.82960 | -72.81752 | 30887 ft | 604 kts | 50° |
| 2026-05-07 12:19 | 42.87815 | -72.72420 | 30885 ft | 600 kts | 49° |
| 2026-05-07 12:20 | 42.92712 | -72.63191 | 30892 ft | 601 kts | 48° |
| 2026-05-07 12:20 | 42.97632 | -72.53964 | 30894 ft | 601 kts | 49° |
| 2026-05-07 12:21 | 43.02544 | -72.44742 | 30893 ft | 601 kts | 49° |
| 2026-05-07 12:21 | 43.07475 | -72.35458 | 30887 ft | 600 kts | 49° |
| 2026-05-07 12:22 | 43.12370 | -72.26221 | 30834 ft | 603 kts | 50° |
| 2026-05-07 12:22 | 43.17302 | -72.16877 | 30839 ft | 602 kts | 49° |
| 2026-05-07 12:23 | 43.22199 | -72.07575 | 30837 ft | 601 kts | 49° |
| 2026-05-07 12:23 | 43.27092 | -71.98249 | 30845 ft | 601 kts | 50° |
| 2026-05-07 12:24 | 43.31938 | -71.88987 | 30833 ft | 599 kts | 50° |
| 2026-05-07 12:24 | 43.36816 | -71.79636 | 30823 ft | 600 kts | 50° |
| 2026-05-07 12:25 | 43.41652 | -71.70332 | 30830 ft | 600 kts | 50° |
| 2026-05-07 12:25 | 43.46492 | -71.60995 | 30824 ft | 598 kts | 50° |
| 2026-05-07 12:26 | 43.51337 | -71.51613 | 30843 ft | 600 kts | 50° |
| 2026-05-07 12:26 | 43.56157 | -71.42248 | 30846 ft | 596 kts | 50° |
| 2026-05-07 12:27 | 43.60966 | -71.32883 | 30827 ft | 595 kts | 51° |
| 2026-05-07 12:27 | 43.65738 | -71.23562 | 30812 ft | 595 kts | 51° |
| 2026-05-07 12:28 | 43.70488 | -71.14244 | 30811 ft | 594 kts | 51° |
| 2026-05-07 12:28 | 43.75226 | -71.04919 | 30808 ft | 590 kts | 51° |
| 2026-05-07 12:29 | 43.79961 | -70.95583 | 30826 ft | 592 kts | 51° |
| 2026-05-07 12:29 | 43.84660 | -70.86281 | 30821 ft | 589 kts | 52° |
| 2026-05-07 12:30 | 43.89353 | -70.76964 | 30829 ft | 590 kts | 52° |
| 2026-05-07 12:30 | 43.94038 | -70.67625 | 30824 ft | 588 kts | 52° |
| 2026-05-07 12:31 | 43.98687 | -70.58338 | 30808 ft | 586 kts | 51° |
| 2026-05-07 12:31 | 44.03345 | -70.48998 | 30809 ft | 585 kts | 52° |
| 2026-05-07 12:32 | 44.07949 | -70.39736 | 30810 ft | 585 kts | 52° |
| 2026-05-07 12:32 | 44.12558 | -70.30438 | 30792 ft | 585 kts | 53° |
| 2026-05-07 12:33 | 44.19479 | -70.16415 | 30795 ft | 585 kts | 53° |
| 2026-05-07 12:33 | 44.24068 | -70.07082 | 30799 ft | 583 kts | 53° |
| 2026-05-07 12:34 | 44.28635 | -69.97763 | 30795 ft | 582 kts | 53° |
| 2026-05-07 12:34 | 44.33238 | -69.88340 | 30801 ft | 584 kts | 53° |
| 2026-05-07 12:35 | 44.37840 | -69.78890 | 30801 ft | 583 kts | 53° |
| 2026-05-07 12:35 | 44.42410 | -69.69472 | 30804 ft | 583 kts | 53° |
| 2026-05-07 12:36 | 44.46941 | -69.60105 | 30801 ft | 582 kts | 53° |
| 2026-05-07 12:36 | 44.51487 | -69.50678 | 30805 ft | 582 kts | 53° |
| 2026-05-07 12:37 | 44.56057 | -69.41168 | 30804 ft | 583 kts | 54° |
| 2026-05-07 12:37 | 44.60577 | -69.31733 | 30785 ft | 582 kts | 54° |
| 2026-05-07 12:38 | 44.65080 | -69.22300 | 30777 ft | 581 kts | 54° |
| 2026-05-07 12:38 | 44.69612 | -69.12779 | 30795 ft | 582 kts | 55° |
| 2026-05-07 12:39 | 44.74111 | -69.03290 | 30793 ft | 583 kts | 54° |
| 2026-05-07 12:39 | 44.78616 | -68.93761 | 30791 ft | 581 kts | 55° |
| 2026-05-07 12:40 | 44.83115 | -68.84210 | 30777 ft | 580 kts | 55° |
| 2026-05-07 12:40 | 44.87596 | -68.74672 | 30780 ft | 580 kts | 55° |
| 2026-05-07 12:41 | 44.92061 | -68.65132 | 30782 ft | 579 kts | 55° |
| 2026-05-07 12:41 | 44.96500 | -68.55615 | 30772 ft | 579 kts | 55° |
| 2026-05-07 12:42 | 45.00957 | -68.46028 | 30781 ft | 576 kts | 55° |
| 2026-05-07 12:42 | 45.05356 | -68.36535 | 30776 ft | 575 kts | 55° |
| 2026-05-07 12:43 | 45.09710 | -68.27110 | 30762 ft | 575 kts | 56° |
| 2026-05-07 12:43 | 45.14080 | -68.17615 | 30745 ft | 573 kts | 56° |
| 2026-05-07 12:44 | 45.18423 | -68.08151 | 30754 ft | 573 kts | 56° |
| 2026-05-07 12:44 | 45.22756 | -67.98674 | 30750 ft | 572 kts | 56° |
| 2026-05-07 12:45 | 45.27072 | -67.89203 | 30753 ft | 571 kts | 56° |
| 2026-05-07 12:45 | 45.31381 | -67.79717 | 30751 ft | 571 kts | 56° |
| 2026-05-07 12:46 | 45.35823 | -67.70394 | 30746 ft | 568 kts | 47° |
| 2026-05-07 12:46 | 45.41144 | -67.62077 | 30745 ft | 567 kts | 45° |
| 2026-05-07 12:47 | 45.46427 | -67.53645 | 30755 ft | 567 kts | 46° |
| 2026-05-07 12:47 | 45.51615 | -67.45227 | 30754 ft | 566 kts | 46° |
| 2026-05-07 12:48 | 45.56805 | -67.36745 | 30753 ft | 565 kts | 46° |
| 2026-05-07 12:48 | 45.61965 | -67.28269 | 30739 ft | 566 kts | 47° |
| 2026-05-07 12:49 | 45.67164 | -67.19701 | 30732 ft | 564 kts | 47° |
| 2026-05-07 12:49 | 45.72298 | -67.11211 | 30736 ft | 564 kts | 47° |
| 2026-05-07 12:50 | 45.77435 | -67.02694 | 30731 ft | 563 kts | 47° |
| 2026-05-07 12:50 | 45.82587 | -66.94122 | 30737 ft | 563 kts | 47° |
| 2026-05-07 12:51 | 45.87692 | -66.85603 | 30739 ft | 562 kts | 47° |
| 2026-05-07 12:51 | 45.92763 | -66.77116 | 30737 ft | 561 kts | 47° |
| 2026-05-07 12:52 | 45.97842 | -66.68587 | 30734 ft | 560 kts | 47° |
| 2026-05-07 12:52 | 46.02949 | -66.59985 | 30736 ft | 559 kts | 47° |
| 2026-05-07 12:53 | 46.07982 | -66.51484 | 30738 ft | 559 kts | 47° |
| 2026-05-07 12:53 | 46.12998 | -66.42981 | 30728 ft | 557 kts | 47° |
| 2026-05-07 12:54 | 46.18023 | -66.34441 | 30728 ft | 557 kts | 49° |
| 2026-05-07 12:54 | 46.23013 | -66.25931 | 30715 ft | 556 kts | 49° |
| 2026-05-07 12:55 | 46.28041 | -66.17329 | 30705 ft | 555 kts | 49° |
| 2026-05-07 12:55 | 46.33045 | -66.08744 | 30704 ft | 554 kts | 49° |
| 2026-05-07 12:56 | 46.37990 | -66.00232 | 30702 ft | 555 kts | 49° |
| 2026-05-07 12:56 | 46.43000 | -65.91584 | 30700 ft | 554 kts | 49° |
| 2026-05-07 12:57 | 46.47950 | -65.83009 | 30704 ft | 554 kts | 49° |
| 2026-05-07 12:57 | 46.52881 | -65.74444 | 30706 ft | 555 kts | 49° |
| 2026-05-07 12:58 | 46.57848 | -65.65788 | 30703 ft | 555 kts | 50° |
| 2026-05-07 12:58 | 46.62816 | -65.57103 | 30699 ft | 554 kts | 49° |
| 2026-05-07 12:59 | 46.67747 | -65.48455 | 30699 ft | 554 kts | 50° |
| 2026-05-07 12:59 | 46.72667 | -65.39798 | 30700 ft | 553 kts | 50° |
| 2026-05-07 13:00 | 46.77568 | -65.31149 | 30686 ft | 552 kts | 51° |
| 2026-05-07 13:00 | 46.82447 | -65.22510 | 30684 ft | 552 kts | 50° |
| 2026-05-07 13:01 | 46.87333 | -65.13833 | 30672 ft | 552 kts | 51° |
| 2026-05-07 13:01 | 46.92221 | -65.05125 | 30680 ft | 552 kts | 51° |
| 2026-05-07 13:02 | 46.97068 | -64.96461 | 30698 ft | 552 kts | 51° |
| 2026-05-07 13:02 | 47.01919 | -64.87766 | 30694 ft | 554 kts | 51° |
| 2026-05-07 13:03 | 47.06768 | -64.79041 | 30693 ft | 552 kts | 51° |
| 2026-05-07 13:03 | 47.11603 | -64.70321 | 30687 ft | 552 kts | 52° |
| 2026-05-07 13:04 | 47.16408 | -64.61620 | 30653 ft | 552 kts | 52° |
| 2026-05-07 13:04 | 47.21230 | -64.52863 | 30678 ft | 553 kts | 52° |
| 2026-05-07 13:05 | 47.26046 | -64.44090 | 30676 ft | 550 kts | 52° |
| 2026-05-07 13:05 | 47.30824 | -64.35356 | 30676 ft | 550 kts | 52° |
| 2026-05-07 13:06 | 47.35615 | -64.26574 | 30670 ft | 549 kts | 53° |
| 2026-05-07 13:06 | 47.40411 | -64.17752 | 30664 ft | 550 kts | 53° |
| 2026-05-07 13:07 | 47.45158 | -64.08993 | 30663 ft | 549 kts | 53° |
| 2026-05-07 13:07 | 47.49915 | -64.00188 | 30661 ft | 550 kts | 54° |
| 2026-05-07 13:08 | 47.54657 | -63.91380 | 30660 ft | 547 kts | 54° |
| 2026-05-07 13:08 | 47.59353 | -63.82628 | 30653 ft | 547 kts | 54° |
| 2026-05-07 13:09 | 47.64078 | -63.73796 | 30659 ft | 546 kts | 54° |
| 2026-05-07 13:09 | 47.68749 | -63.65035 | 30651 ft | 545 kts | 54° |
| 2026-05-07 13:10 | 47.73434 | -63.56219 | 30647 ft | 544 kts | 53° |
| 2026-05-07 13:10 | 47.78076 | -63.47459 | 30656 ft | 543 kts | 54° |
| 2026-05-07 13:11 | 47.82742 | -63.38627 | 30651 ft | 544 kts | 53° |
| 2026-05-07 13:11 | 47.87380 | -63.29815 | 30644 ft | 541 kts | 54° |
| 2026-05-07 13:12 | 47.91979 | -63.21050 | 30644 ft | 539 kts | 54° |
| 2026-05-07 13:12 | 47.96600 | -63.12215 | 30641 ft | 539 kts | 54° |
| 2026-05-07 13:13 | 48.01193 | -63.03402 | 30642 ft | 540 kts | 54° |
| 2026-05-07 13:13 | 48.05785 | -62.94564 | 30641 ft | 539 kts | 54° |
| 2026-05-07 13:14 | 48.10368 | -62.85717 | 30633 ft | 539 kts | 54° |
| 2026-05-07 13:14 | 48.14927 | -62.76883 | 30636 ft | 540 kts | 54° |
| 2026-05-07 13:15 | 48.19501 | -62.67994 | 30639 ft | 541 kts | 54° |
| 2026-05-07 13:15 | 48.24093 | -62.59042 | 30648 ft | 541 kts | 55° |
| 2026-05-07 13:16 | 48.28656 | -62.50116 | 30629 ft | 538 kts | 55° |
| 2026-05-07 13:16 | 48.33196 | -62.41204 | 30647 ft | 539 kts | 55° |
| 2026-05-07 13:17 | 48.37728 | -62.32278 | 30641 ft | 541 kts | 56° |
| 2026-05-07 13:17 | 48.42243 | -62.23356 | 30643 ft | 539 kts | 56° |
| 2026-05-07 13:18 | 48.46767 | -62.14389 | 30629 ft | 539 kts | 56° |
| 2026-05-07 13:18 | 48.51309 | -62.05355 | 30654 ft | 541 kts | 56° |
| 2026-05-07 13:19 | 48.55830 | -61.96330 | 30654 ft | 540 kts | 56° |
| 2026-05-07 13:19 | 48.60362 | -61.87258 | 30653 ft | 539 kts | 56° |
| 2026-05-07 13:20 | 48.64838 | -61.78264 | 30666 ft | 540 kts | 56° |
| 2026-05-07 13:20 | 48.69351 | -61.69167 | 30667 ft | 540 kts | 56° |
| 2026-05-07 13:21 | 48.73833 | -61.60097 | 30678 ft | 540 kts | 56° |
| 2026-05-07 13:21 | 48.78309 | -61.51017 | 30678 ft | 541 kts | 56° |
| 2026-05-07 13:22 | 48.82772 | -61.41931 | 30693 ft | 542 kts | 56° |
| 2026-05-07 13:22 | 48.87271 | -61.32735 | 30697 ft | 542 kts | 57° |
| 2026-05-07 13:23 | 48.91735 | -61.23587 | 30703 ft | 540 kts | 57° |
| 2026-05-07 13:23 | 48.96209 | -61.14377 | 30712 ft | 542 kts | 57° |
| 2026-05-07 13:24 | 49.00644 | -61.05226 | 30726 ft | 542 kts | 57° |
| 2026-05-07 13:24 | 49.05109 | -60.95972 | 30729 ft | 543 kts | 58° |
| 2026-05-07 13:25 | 49.09572 | -60.86696 | 30729 ft | 543 kts | 57° |
| 2026-05-07 13:25 | 49.14025 | -60.77409 | 30714 ft | 543 kts | 58° |
| 2026-05-07 13:26 | 49.18457 | -60.68133 | 30714 ft | 543 kts | 57° |
| 2026-05-07 13:26 | 49.22921 | -60.58755 | 30720 ft | 542 kts | 57° |
| 2026-05-07 13:27 | 49.27315 | -60.49491 | 30749 ft | 542 kts | 57° |
| 2026-05-07 13:27 | 49.31727 | -60.40158 | 30749 ft | 541 kts | 57° |
| 2026-05-07 13:28 | 49.36140 | -60.30792 | 30749 ft | 541 kts | 58° |
| 2026-05-07 13:28 | 49.40495 | -60.21518 | 30759 ft | 539 kts | 58° |
| 2026-05-07 13:29 | 49.44877 | -60.12154 | 30760 ft | 540 kts | 58° |
| 2026-05-07 13:29 | 49.49241 | -60.02793 | 30772 ft | 541 kts | 58° |
| 2026-05-07 13:30 | 49.53585 | -59.93445 | 30764 ft | 539 kts | 58° |
| 2026-05-07 13:30 | 49.57934 | -59.84050 | 30775 ft | 540 kts | 58° |
| 2026-05-07 13:31 | 49.62265 | -59.74659 | 30763 ft | 541 kts | 58° |
| 2026-05-07 13:31 | 49.66597 | -59.65239 | 30788 ft | 539 kts | 58° |
| 2026-05-07 13:32 | 49.70916 | -59.55809 | 30794 ft | 539 kts | 58° |
| 2026-05-07 13:32 | 49.75218 | -59.46383 | 30795 ft | 538 kts | 58° |
| 2026-05-07 13:33 | 49.79544 | -59.36871 | 30801 ft | 539 kts | 58° |
| 2026-05-07 13:33 | 49.83873 | -59.27321 | 31058 ft | 540 kts | 59° |
| 2026-05-07 13:34 | 49.86025 | -59.22555 | 31348 ft | 541 kts | 59° |
| 2026-05-07 13:34 | 49.90302 | -59.13068 | 32032 ft | 538 kts | 59° |
| 2026-05-07 13:34 | 49.92419 | -59.08369 | 32361 ft | 537 kts | 59° |
| 2026-05-07 13:35 | 49.94546 | -59.03624 | 32706 ft | 535 kts | 60° |
| 2026-05-07 13:35 | 49.96648 | -58.98937 | 32827 ft | 523 kts | 59° |
| 2026-05-07 13:35 | 49.98677 | -58.94398 | 32822 ft | 514 kts | 60° |
| 2026-05-07 13:36 | 50.02762 | -58.85227 | 32842 ft | 524 kts | 59° |
| 2026-05-07 13:36 | 50.06963 | -58.75771 | 32830 ft | 533 kts | 60° |
| 2026-05-07 13:37 | 50.11141 | -58.66342 | 32807 ft | 529 kts | 60° |
| 2026-05-07 13:37 | 50.15327 | -58.56857 | 32813 ft | 528 kts | 60° |
| 2026-05-07 13:38 | 50.19460 | -58.47454 | 32815 ft | 531 kts | 60° |
| 2026-05-07 13:38 | 50.23612 | -58.37978 | 32821 ft | 530 kts | 60° |
| 2026-05-07 13:39 | 50.27776 | -58.28443 | 32825 ft | 529 kts | 61° |
| 2026-05-07 13:39 | 50.31900 | -58.18958 | 32830 ft | 529 kts | 61° |
| 2026-05-07 13:40 | 50.36031 | -58.09431 | 32855 ft | 528 kts | 61° |
| 2026-05-07 13:40 | 50.40122 | -57.99955 | 32855 ft | 527 kts | 61° |
| 2026-05-07 13:41 | 50.44204 | -57.90465 | 32858 ft | 527 kts | 61° |
| 2026-05-07 13:41 | 50.48299 | -57.80911 | 32861 ft | 530 kts | 60° |
| 2026-05-07 13:42 | 50.52400 | -57.71312 | 32865 ft | 530 kts | 60° |
| 2026-05-07 13:42 | 50.56526 | -57.61618 | 32883 ft | 532 kts | 60° |
| 2026-05-07 13:43 | 50.60616 | -57.51971 | 32876 ft | 531 kts | 60° |
| 2026-05-07 13:43 | 50.64724 | -57.42248 | 32883 ft | 532 kts | 60° |
| 2026-05-07 13:44 | 50.68825 | -57.32507 | 32877 ft | 531 kts | 61° |
| 2026-05-07 13:44 | 50.72908 | -57.22769 | 32879 ft | 530 kts | 61° |
| 2026-05-07 13:45 | 50.76953 | -57.13084 | 32876 ft | 532 kts | 61° |
| 2026-05-07 13:45 | 50.81043 | -57.03259 | 32865 ft | 532 kts | 61° |
| 2026-05-07 13:46 | 50.85104 | -56.93464 | 32882 ft | 532 kts | 61° |
| 2026-05-07 13:46 | 50.89183 | -56.83589 | 32877 ft | 533 kts | 61° |
| 2026-05-07 13:47 | 50.93240 | -56.73730 | 32890 ft | 533 kts | 61° |
| 2026-05-07 13:47 | 50.97283 | -56.63867 | 32892 ft | 533 kts | 61° |
| 2026-05-07 13:48 | 51.01308 | -56.54010 | 32887 ft | 533 kts | 60° |
| 2026-05-07 13:48 | 51.05357 | -56.44062 | 32909 ft | 534 kts | 61° |
| 2026-05-07 13:49 | 51.09382 | -56.34130 | 32896 ft | 534 kts | 62° |
| 2026-05-07 13:49 | 51.13321 | -56.24371 | 32894 ft | 532 kts | 61° |
| 2026-05-07 13:50 | 51.17328 | -56.14406 | 32886 ft | 534 kts | 61° |
| 2026-05-07 13:50 | 51.21339 | -56.04399 | 32894 ft | 536 kts | 62° |
| 2026-05-07 13:51 | 51.25330 | -55.94399 | 32901 ft | 535 kts | 62° |
| 2026-05-07 13:51 | 51.29295 | -55.84426 | 32918 ft | 536 kts | 61° |
| 2026-05-07 13:52 | 51.33288 | -55.74343 | 32914 ft | 536 kts | 61° |
| 2026-05-07 13:52 | 51.37250 | -55.64298 | 32917 ft | 535 kts | 61° |
| 2026-05-07 13:53 | 51.41209 | -55.54225 | 32930 ft | 536 kts | 61° |
| 2026-05-07 13:53 | 51.45187 | -55.44065 | 32938 ft | 537 kts | 61° |
| 2026-05-07 13:54 | 51.49125 | -55.33963 | 32943 ft | 535 kts | 62° |
| 2026-05-07 13:54 | 51.53044 | -55.23869 | 32939 ft | 536 kts | 62° |
| 2026-05-07 13:55 | 51.56951 | -55.13770 | 32944 ft | 538 kts | 62° |
| 2026-05-07 13:55 | 51.60896 | -55.03530 | 32946 ft | 538 kts | 62° |
| 2026-05-07 13:56 | 51.64792 | -54.93377 | 32961 ft | 539 kts | 62° |
| 2026-05-07 13:56 | 51.68736 | -54.83060 | 32962 ft | 538 kts | 62° |
| 2026-05-07 13:57 | 51.72523 | -54.73113 | 32963 ft | 538 kts | 62° |
| 2026-05-07 13:57 | 51.76413 | -54.62855 | 32972 ft | 538 kts | 62° |
| 2026-05-07 13:58 | 51.80041 | -54.52458 | 32980 ft | 534 kts | 67° |
| 2026-05-07 13:58 | 51.83314 | -54.41689 | 32978 ft | 535 kts | 67° |
| 2026-05-07 13:59 | 51.86415 | -54.31152 | 32981 ft | 534 kts | 69° |
| 2026-05-07 13:59 | 51.89561 | -54.20299 | 32988 ft | 534 kts | 69° |
| 2026-05-07 14:00 | 51.92679 | -54.09452 | 32992 ft | 535 kts | 69° |
| 2026-05-07 14:00 | 51.95807 | -53.98503 | 32995 ft | 534 kts | 69° |
| 2026-05-07 14:01 | 51.98909 | -53.87588 | 33002 ft | 536 kts | 69° |
| 2026-05-07 14:01 | 52.02007 | -53.76641 | 32994 ft | 536 kts | 69° |
| 2026-05-07 14:02 | 52.05075 | -53.65739 | 33002 ft | 535 kts | 69° |
| 2026-05-07 14:02 | 52.08145 | -53.54788 | 33009 ft | 535 kts | 69° |
| 2026-05-07 14:03 | 52.11217 | -53.43771 | 32993 ft | 536 kts | 69° |
| 2026-05-07 14:03 | 52.14274 | -53.32755 | 32995 ft | 537 kts | 69° |
| 2026-05-07 14:04 | 52.17328 | -53.21704 | 32989 ft | 536 kts | 70° |
| 2026-05-07 14:04 | 52.20369 | -53.10645 | 32996 ft | 538 kts | 70° |
| 2026-05-07 14:05 | 52.23408 | -52.99544 | 33007 ft | 537 kts | 70° |
| 2026-05-07 14:05 | 52.26413 | -52.88509 | 33015 ft | 536 kts | 69° |
| 2026-05-07 14:06 | 52.29423 | -52.77403 | 33007 ft | 533 kts | 69° |
| 2026-05-07 14:06 | 52.32388 | -52.66408 | 33019 ft | 534 kts | 69° |
| 2026-05-07 14:07 | 52.35375 | -52.55283 | 33022 ft | 534 kts | 69° |
| 2026-05-07 14:07 | 52.38334 | -52.44203 | 33024 ft | 534 kts | 69° |
| 2026-05-07 14:08 | 52.41300 | -52.33052 | 33016 ft | 536 kts | 70° |
| 2026-05-07 14:08 | 52.44262 | -52.21855 | 33022 ft | 536 kts | 70° |
| 2026-05-07 14:09 | 52.47201 | -52.10693 | 33021 ft | 535 kts | 70° |
| 2026-05-07 14:09 | 52.50124 | -51.99533 | 33031 ft | 535 kts | 69° |
| 2026-05-07 14:10 | 52.53033 | -51.88378 | 33036 ft | 535 kts | 69° |
| 2026-05-07 14:10 | 52.55936 | -51.77183 | 33038 ft | 535 kts | 70° |
| 2026-05-07 14:11 | 52.58829 | -51.65975 | 33046 ft | 535 kts | 69° |
| 2026-05-07 14:11 | 52.61706 | -51.54772 | 33050 ft | 535 kts | 69° |
| 2026-05-07 14:12 | 52.64576 | -51.43542 | 33064 ft | 536 kts | 69° |
| 2026-05-07 14:12 | 52.67439 | -51.32287 | 33065 ft | 535 kts | 70° |
| 2026-05-07 14:13 | 52.70288 | -51.21024 | 33069 ft | 534 kts | 70° |
| 2026-05-07 14:13 | 52.73130 | -51.09730 | 33069 ft | 535 kts | 70° |
| 2026-05-07 14:14 | 52.75957 | -50.98440 | 33074 ft | 535 kts | 69° |
| 2026-05-07 14:14 | 52.78781 | -50.87109 | 33078 ft | 535 kts | 69° |
| 2026-05-07 14:15 | 52.81601 | -50.75735 | 33085 ft | 534 kts | 70° |
| 2026-05-07 14:15 | 52.84374 | -50.64489 | 33085 ft | 533 kts | 69° |
| 2026-05-07 14:16 | 52.87147 | -50.53187 | 33092 ft | 533 kts | 69° |
| 2026-05-07 14:16 | 52.89916 | -50.41847 | 33091 ft | 533 kts | 69° |
| 2026-05-07 14:17 | 52.92680 | -50.30465 | 33083 ft | 531 kts | 70° |
| 2026-05-07 14:17 | 52.95414 | -50.19141 | 33089 ft | 530 kts | 70° |
| 2026-05-07 14:18 | 52.98143 | -50.07788 | 33090 ft | 532 kts | 70° |
| 2026-05-07 14:18 | 53.00416 | -49.96240 | 33114 ft | 529 kts | 77° |
| 2026-05-07 14:19 | 53.02203 | -49.84432 | 33088 ft | 529 kts | 78° |
| 2026-05-07 14:19 | 53.03921 | -49.72627 | 33091 ft | 529 kts | 78° |
| 2026-05-07 14:20 | 53.05609 | -49.60795 | 33104 ft | 529 kts | 78° |
| 2026-05-07 14:20 | 53.07280 | -49.48952 | 33107 ft | 528 kts | 78° |
| 2026-05-07 14:21 | 53.08941 | -49.37066 | 33104 ft | 528 kts | 78° |
| 2026-05-07 14:21 | 53.10578 | -49.25250 | 33097 ft | 527 kts | 79° |
| 2026-05-07 14:22 | 53.12214 | -49.13348 | 33102 ft | 527 kts | 79° |
| 2026-05-07 14:22 | 53.13826 | -49.01527 | 33103 ft | 528 kts | 79° |
| 2026-05-07 14:23 | 53.15433 | -48.89645 | 33108 ft | 526 kts | 79° |
| 2026-05-07 14:23 | 53.17018 | -48.77826 | 33109 ft | 527 kts | 79° |
| 2026-05-07 14:24 | 53.18604 | -48.65911 | 33109 ft | 526 kts | 79° |
| 2026-05-07 14:24 | 53.20172 | -48.54030 | 33121 ft | 528 kts | 79° |
| 2026-05-07 14:25 | 53.21726 | -48.42158 | 33114 ft | 528 kts | 79° |
| 2026-05-07 14:25 | 53.23275 | -48.30226 | 33110 ft | 527 kts | 79° |
| 2026-05-07 14:26 | 53.24807 | -48.18316 | 33125 ft | 528 kts | 79° |
| 2026-05-07 14:26 | 53.26334 | -48.06345 | 33122 ft | 528 kts | 79° |
| 2026-05-07 14:27 | 53.27845 | -47.94399 | 33126 ft | 528 kts | 79° |
| 2026-05-07 14:27 | 53.29346 | -47.82438 | 33130 ft | 527 kts | 79° |
| 2026-05-07 14:28 | 53.30826 | -47.70536 | 33136 ft | 527 kts | 79° |
| 2026-05-07 14:28 | 53.32298 | -47.58589 | 33138 ft | 526 kts | 79° |
| 2026-05-07 14:29 | 53.33750 | -47.46700 | 33142 ft | 525 kts | 79° |
| 2026-05-07 14:29 | 53.35200 | -47.34735 | 33143 ft | 525 kts | 79° |
| 2026-05-07 14:30 | 53.36628 | -47.22840 | 33139 ft | 524 kts | 79° |
| 2026-05-07 14:30 | 53.38045 | -47.10923 | 33139 ft | 525 kts | 79° |
| 2026-05-07 14:31 | 53.39449 | -46.99012 | 33142 ft | 524 kts | 79° |
| 2026-05-07 14:31 | 53.40845 | -46.87055 | 33144 ft | 523 kts | 79° |
| 2026-05-07 14:32 | 53.42223 | -46.75149 | 33147 ft | 523 kts | 79° |
| 2026-05-07 14:32 | 53.43583 | -46.63288 | 33154 ft | 522 kts | 79° |
| 2026-05-07 14:33 | 53.44937 | -46.51371 | 33156 ft | 523 kts | 79° |
| 2026-05-07 14:33 | 53.46283 | -46.39410 | 33156 ft | 523 kts | 78° |
| 2026-05-07 14:34 | 53.47617 | -46.27439 | 33153 ft | 522 kts | 79° |
| 2026-05-07 14:34 | 53.48937 | -46.15482 | 33161 ft | 523 kts | 79° |
| 2026-05-07 14:35 | 53.50236 | -46.03593 | 33159 ft | 523 kts | 79° |
| 2026-05-07 14:35 | 53.51529 | -45.91650 | 33166 ft | 523 kts | 79° |
| 2026-05-07 14:36 | 53.52820 | -45.79610 | 33167 ft | 522 kts | 79° |
| 2026-05-07 14:36 | 53.54086 | -45.67686 | 33167 ft | 522 kts | 79° |
| 2026-05-07 14:37 | 53.55341 | -45.55740 | 33171 ft | 521 kts | 78° |
| 2026-05-07 14:37 | 53.57207 | -45.37742 | 33176 ft | 522 kts | 78° |
| 2026-05-07 14:38 | 53.58435 | -45.25771 | 33173 ft | 522 kts | 79° |
| 2026-05-07 14:38 | 53.59649 | -45.13786 | 33178 ft | 522 kts | 79° |
| 2026-05-07 14:39 | 53.60849 | -45.01825 | 33182 ft | 521 kts | 78° |
| 2026-05-07 14:39 | 53.62041 | -44.89817 | 33184 ft | 520 kts | 79° |
| 2026-05-07 14:40 | 53.63210 | -44.77910 | 33182 ft | 520 kts | 79° |
| 2026-05-07 14:40 | 53.64381 | -44.65863 | 33182 ft | 521 kts | 79° |
| 2026-05-07 14:41 | 53.65537 | -44.53823 | 33187 ft | 521 kts | 78° |
| 2026-05-07 14:41 | 53.66673 | -44.41869 | 33187 ft | 521 kts | 78° |
| 2026-05-07 14:42 | 53.67806 | -44.29817 | 33176 ft | 521 kts | 79° |
| 2026-05-07 14:42 | 53.68922 | -44.17812 | 33178 ft | 521 kts | 79° |
| 2026-05-07 14:43 | 53.70028 | -44.05770 | 33178 ft | 521 kts | 79° |
| 2026-05-07 14:43 | 53.71124 | -43.93711 | 33180 ft | 521 kts | 79° |
| 2026-05-07 14:44 | 53.72204 | -43.81677 | 33183 ft | 520 kts | 79° |
| 2026-05-07 14:44 | 53.73271 | -43.69658 | 33188 ft | 519 kts | 79° |
| 2026-05-07 14:45 | 53.74323 | -43.57666 | 33191 ft | 520 kts | 79° |
| 2026-05-07 14:45 | 53.75362 | -43.45670 | 33193 ft | 520 kts | 79° |
| 2026-05-07 14:46 | 53.76393 | -43.33619 | 33196 ft | 519 kts | 79° |
| 2026-05-07 14:46 | 53.77411 | -43.21591 | 33187 ft | 518 kts | 79° |
| 2026-05-07 14:47 | 53.78410 | -43.09620 | 33185 ft | 519 kts | 79° |
| 2026-05-07 14:47 | 53.79400 | -42.97630 | 33201 ft | 518 kts | 79° |
| 2026-05-07 14:48 | 53.80378 | -42.85628 | 33203 ft | 517 kts | 79° |
| 2026-05-07 14:48 | 53.81347 | -42.73574 | 33210 ft | 517 kts | 79° |
| 2026-05-07 14:49 | 53.82299 | -42.61593 | 33215 ft | 518 kts | 79° |
| 2026-05-07 14:49 | 53.83241 | -42.49560 | 33218 ft | 517 kts | 79° |
| 2026-05-07 14:50 | 53.84168 | -42.37571 | 33219 ft | 516 kts | 79° |
| 2026-05-07 14:50 | 53.85085 | -42.25541 | 33231 ft | 517 kts | 80° |
| 2026-05-07 14:51 | 53.85991 | -42.13494 | 33234 ft | 517 kts | 79° |
| 2026-05-07 14:51 | 53.86885 | -42.01465 | 33237 ft | 515 kts | 79° |
| 2026-05-07 14:52 | 53.87763 | -41.89467 | 33236 ft | 516 kts | 79° |
| 2026-05-07 14:52 | 53.88631 | -41.77431 | 33238 ft | 516 kts | 79° |
| 2026-05-07 14:53 | 53.89488 | -41.65383 | 33249 ft | 516 kts | 79° |
| 2026-05-07 14:53 | 53.90324 | -41.53440 | 33251 ft | 515 kts | 79° |
| 2026-05-07 14:54 | 53.91159 | -41.41368 | 33254 ft | 515 kts | 79° |
| 2026-05-07 14:54 | 53.91975 | -41.29382 | 33239 ft | 515 kts | 80° |
| 2026-05-07 14:55 | 53.92780 | -41.17348 | 33250 ft | 514 kts | 80° |
| 2026-05-07 14:55 | 53.93572 | -41.05372 | 33250 ft | 514 kts | 80° |
| 2026-05-07 14:56 | 53.94350 | -40.93398 | 33254 ft | 514 kts | 79° |
| 2026-05-07 14:56 | 53.95120 | -40.81356 | 33258 ft | 514 kts | 79° |
| 2026-05-07 14:57 | 53.95874 | -40.69385 | 33255 ft | 513 kts | 79° |
| 2026-05-07 14:57 | 53.96619 | -40.57346 | 33258 ft | 515 kts | 79° |
| 2026-05-07 14:58 | 53.97356 | -40.45244 | 33270 ft | 516 kts | 79° |
| 2026-05-07 14:58 | 53.98080 | -40.33158 | 33264 ft | 516 kts | 80° |
| 2026-05-07 14:59 | 53.98788 | -40.21111 | 33270 ft | 515 kts | 79° |
| 2026-05-07 14:59 | 53.99484 | -40.09081 | 33271 ft | 516 kts | 79° |
| 2026-05-07 15:00 | 54.00258 | -39.96967 | 33266 ft | 512 kts | 74° |
| 2026-05-07 15:00 | 54.01987 | -39.85446 | 33267 ft | 508 kts | 70° |
| 2026-05-07 15:01 | 54.03721 | -39.73809 | 33282 ft | 509 kts | 70° |
| 2026-05-07 15:01 | 54.05392 | -39.62173 | 33284 ft | 508 kts | 70° |
| 2026-05-07 15:02 | 54.07030 | -39.50591 | 33284 ft | 507 kts | 70° |
| 2026-05-07 15:02 | 54.08655 | -39.38954 | 33293 ft | 508 kts | 70° |
| 2026-05-07 15:03 | 54.10283 | -39.27220 | 33296 ft | 511 kts | 71° |
| 2026-05-07 15:03 | 54.11903 | -39.15413 | 33301 ft | 511 kts | 71° |
| 2026-05-07 15:04 | 54.13505 | -39.03649 | 33301 ft | 510 kts | 71° |
| 2026-05-07 15:04 | 54.15084 | -38.91969 | 33303 ft | 510 kts | 71° |
| 2026-05-07 15:05 | 54.16655 | -38.80257 | 33309 ft | 511 kts | 71° |
| 2026-05-07 15:05 | 54.18228 | -38.68431 | 33313 ft | 510 kts | 71° |
| 2026-05-07 15:06 | 54.19775 | -38.56706 | 33307 ft | 510 kts | 71° |
| 2026-05-07 15:06 | 54.21311 | -38.44969 | 33313 ft | 510 kts | 70° |
| 2026-05-07 15:07 | 54.22847 | -38.33130 | 33313 ft | 509 kts | 71° |
| 2026-05-07 15:07 | 54.24356 | -38.21405 | 33313 ft | 509 kts | 71° |
| 2026-05-07 15:08 | 54.25855 | -38.09661 | 33312 ft | 508 kts | 71° |
| 2026-05-07 15:08 | 54.27353 | -37.97830 | 33311 ft | 509 kts | 71° |
| 2026-05-07 15:09 | 54.28827 | -37.86082 | 33308 ft | 507 kts | 71° |
| 2026-05-07 15:09 | 54.30290 | -37.74327 | 33309 ft | 507 kts | 71° |
| 2026-05-07 15:10 | 54.31740 | -37.62585 | 33305 ft | 507 kts | 71° |
| 2026-05-07 15:10 | 54.33182 | -37.50792 | 33308 ft | 506 kts | 70° |
| 2026-05-07 15:11 | 54.34606 | -37.39057 | 33308 ft | 507 kts | 70° |
| 2026-05-07 15:11 | 54.36024 | -37.27270 | 33303 ft | 507 kts | 71° |
| 2026-05-07 15:12 | 54.37429 | -37.15481 | 33307 ft | 508 kts | 71° |
| 2026-05-07 15:12 | 54.38824 | -37.03658 | 33310 ft | 507 kts | 71° |
| 2026-05-07 15:13 | 54.40205 | -36.91864 | 33310 ft | 508 kts | 71° |
| 2026-05-07 15:13 | 54.41579 | -36.80023 | 33309 ft | 506 kts | 71° |
| 2026-05-07 15:14 | 54.42948 | -36.68124 | 33311 ft | 510 kts | 71° |
| 2026-05-07 15:14 | 54.44299 | -36.56251 | 33307 ft | 508 kts | 71° |
| 2026-05-07 15:15 | 54.45635 | -36.44407 | 33318 ft | 507 kts | 70° |
| 2026-05-07 15:15 | 54.46957 | -36.32582 | 33309 ft | 507 kts | 71° |
| 2026-05-07 15:16 | 54.48270 | -36.20741 | 33309 ft | 509 kts | 72° |
| 2026-05-07 15:16 | 54.49580 | -36.08790 | 33312 ft | 509 kts | 71° |
| 2026-05-07 15:17 | 54.50871 | -35.96895 | 33314 ft | 507 kts | 71° |
| 2026-05-07 15:17 | 54.52150 | -35.85010 | 33314 ft | 508 kts | 71° |
| 2026-05-07 15:18 | 54.53425 | -35.73045 | 33308 ft | 508 kts | 71° |
| 2026-05-07 15:18 | 54.54675 | -35.61197 | 33318 ft | 507 kts | 71° |
| 2026-05-07 15:19 | 54.55920 | -35.49271 | 33324 ft | 508 kts | 71° |
| 2026-05-07 15:19 | 54.57156 | -35.37322 | 33335 ft | 507 kts | 71° |
| 2026-05-07 15:20 | 54.58378 | -35.25391 | 33329 ft | 509 kts | 72° |
| 2026-05-07 15:20 | 54.59587 | -35.13435 | 33331 ft | 508 kts | 71° |
| 2026-05-07 15:21 | 54.60790 | -35.01447 | 33328 ft | 509 kts | 71° |
| 2026-05-07 15:21 | 54.61984 | -34.89413 | 33322 ft | 510 kts | 71° |
| 2026-05-07 15:22 | 54.63157 | -34.77465 | 33324 ft | 509 kts | 71° |
| 2026-05-07 15:22 | 54.64322 | -34.65463 | 33324 ft | 508 kts | 71° |
| 2026-05-07 15:23 | 54.65471 | -34.53499 | 33319 ft | 508 kts | 71° |
| 2026-05-07 15:23 | 54.66613 | -34.41493 | 33316 ft | 511 kts | 71° |
| 2026-05-07 15:24 | 54.67750 | -34.29390 | 33307 ft | 509 kts | 71° |
| 2026-05-07 15:24 | 54.68858 | -34.17468 | 33305 ft | 507 kts | 72° |
| 2026-05-07 15:25 | 54.69964 | -34.05440 | 33308 ft | 508 kts | 71° |
| 2026-05-07 15:25 | 54.71057 | -33.93413 | 33313 ft | 508 kts | 71° |
| 2026-05-07 15:26 | 54.72132 | -33.81442 | 33314 ft | 507 kts | 71° |
| 2026-05-07 15:26 | 54.73200 | -33.69428 | 33307 ft | 508 kts | 71° |
| 2026-05-07 15:27 | 54.74260 | -33.57369 | 33313 ft | 511 kts | 71° |
| 2026-05-07 15:27 | 54.75309 | -33.45246 | 33316 ft | 509 kts | 71° |
| 2026-05-07 15:28 | 54.76338 | -33.33233 | 33308 ft | 507 kts | 72° |
| 2026-05-07 15:28 | 54.77363 | -33.21148 | 33305 ft | 511 kts | 72° |
| 2026-05-07 15:29 | 54.78375 | -33.09043 | 33306 ft | 512 kts | 71° |
| 2026-05-07 15:29 | 54.79375 | -32.96922 | 33296 ft | 509 kts | 71° |
| 2026-05-07 15:30 | 54.80366 | -32.84764 | 33289 ft | 509 kts | 71° |
| 2026-05-07 15:30 | 54.81338 | -32.72703 | 33292 ft | 511 kts | 71° |
| 2026-05-07 15:31 | 54.82309 | -32.60483 | 33293 ft | 513 kts | 71° |
| 2026-05-07 15:31 | 54.83259 | -32.48341 | 33289 ft | 508 kts | 71° |
| 2026-05-07 15:32 | 54.84198 | -32.36229 | 33292 ft | 510 kts | 71° |
| 2026-05-07 15:32 | 54.85126 | -32.24097 | 33283 ft | 512 kts | 72° |
| 2026-05-07 15:33 | 54.86046 | -32.11883 | 33283 ft | 513 kts | 72° |
| 2026-05-07 15:33 | 54.86955 | -31.99641 | 33284 ft | 512 kts | 72° |
| 2026-05-07 15:34 | 54.87845 | -31.87471 | 33284 ft | 510 kts | 72° |
| 2026-05-07 15:34 | 54.88724 | -31.75321 | 33280 ft | 511 kts | 72° |
| 2026-05-07 15:35 | 54.89594 | -31.63121 | 33277 ft | 513 kts | 72° |
| 2026-05-07 15:35 | 54.90449 | -31.50893 | 33275 ft | 509 kts | 72° |
| 2026-05-07 15:36 | 54.91292 | -31.38714 | 33279 ft | 511 kts | 71° |
| 2026-05-07 15:36 | 54.92122 | -31.26549 | 33269 ft | 512 kts | 72° |
| 2026-05-07 15:37 | 54.92947 | -31.14235 | 33261 ft | 510 kts | 72° |
| 2026-05-07 15:37 | 54.93741 | -31.02181 | 33260 ft | 507 kts | 72° |
| 2026-05-07 15:38 | 54.94540 | -30.89942 | 33261 ft | 511 kts | 72° |
| 2026-05-07 15:38 | 54.95309 | -30.77926 | 33273 ft | 512 kts | 73° |
| 2026-05-07 15:39 | 54.96077 | -30.65705 | 33272 ft | 507 kts | 72° |
| 2026-05-07 15:39 | 54.96833 | -30.53503 | 33265 ft | 508 kts | 72° |
| 2026-05-07 15:40 | 54.97577 | -30.41322 | 33269 ft | 509 kts | 72° |
| 2026-05-07 15:40 | 54.98306 | -30.29183 | 33267 ft | 511 kts | 73° |
| 2026-05-07 15:41 | 54.99030 | -30.16859 | 33259 ft | 512 kts | 73° |
| 2026-05-07 15:41 | 54.99736 | -30.04657 | 33260 ft | 511 kts | 73° |
| 2026-05-07 15:42 | 55.00303 | -29.92211 | 33250 ft | 516 kts | 75° |
| 2026-05-07 15:42 | 55.00804 | -29.79903 | 33248 ft | 512 kts | 76° |
| 2026-05-07 15:43 | 55.01287 | -29.67581 | 33243 ft | 510 kts | 76° |
| 2026-05-07 15:43 | 55.01753 | -29.55343 | 33246 ft | 509 kts | 76° |
| 2026-05-07 15:44 | 55.02209 | -29.43021 | 33246 ft | 510 kts | 76° |
| 2026-05-07 15:44 | 55.02648 | -29.30783 | 33228 ft | 508 kts | 77° |
| 2026-05-07 15:45 | 55.03079 | -29.18457 | 33232 ft | 510 kts | 77° |
| 2026-05-07 15:45 | 55.03491 | -29.06241 | 33227 ft | 507 kts | 77° |
| 2026-05-07 15:46 | 55.04091 | -28.87856 | 33237 ft | 508 kts | 78° |
| 2026-05-07 15:47 | 55.04477 | -28.75553 | 33223 ft | 508 kts | 78° |
| 2026-05-07 15:47 | 55.04847 | -28.63362 | 33237 ft | 508 kts | 78° |
| 2026-05-07 15:48 | 55.05206 | -28.51105 | 33221 ft | 507 kts | 78° |
| 2026-05-07 15:48 | 55.05550 | -28.38947 | 33222 ft | 507 kts | 79° |
| 2026-05-07 15:49 | 55.05885 | -28.26676 | 33211 ft | 505 kts | 80° |
| 2026-05-07 15:49 | 55.06206 | -28.14486 | 33197 ft | 506 kts | 80° |
| 2026-05-07 15:50 | 55.06513 | -28.02322 | 33209 ft | 504 kts | 80° |
| 2026-05-07 15:50 | 55.06808 | -27.90191 | 33222 ft | 503 kts | 81° |
| 2026-05-07 15:51 | 55.07092 | -27.78001 | 33223 ft | 504 kts | 81° |
| 2026-05-07 15:51 | 55.07362 | -27.65882 | 33221 ft | 505 kts | 81° |
| 2026-05-07 15:52 | 55.07621 | -27.53700 | 33220 ft | 504 kts | 81° |
| 2026-05-07 15:52 | 55.07869 | -27.41489 | 33213 ft | 503 kts | 81° |
| 2026-05-07 15:53 | 55.08103 | -27.29347 | 33212 ft | 504 kts | 82° |
| 2026-05-07 15:53 | 55.08326 | -27.17148 | 33210 ft | 504 kts | 82° |
| 2026-05-07 15:54 | 55.08536 | -27.05055 | 33208 ft | 502 kts | 83° |
| 2026-05-07 15:54 | 55.08733 | -26.92932 | 33204 ft | 502 kts | 83° |
| 2026-05-07 15:55 | 55.08919 | -26.80747 | 33205 ft | 503 kts | 83° |
| 2026-05-07 15:55 | 55.09089 | -26.68713 | 33171 ft | 490 kts | 83° |
| 2026-05-07 15:56 | 55.09251 | -26.56795 | 33159 ft | 499 kts | 83° |
| 2026-05-07 15:56 | 55.09401 | -26.44653 | 33434 ft | 502 kts | 83° |
| 2026-05-07 15:56 | 55.09472 | -26.38554 | 33620 ft | 502 kts | 83° |
| 2026-05-07 15:57 | 55.09539 | -26.32443 | 33785 ft | 502 kts | 84° |
| 2026-05-07 15:57 | 55.09603 | -26.26417 | 33961 ft | 502 kts | 84° |
| 2026-05-07 15:57 | 55.09665 | -26.20344 | 34161 ft | 501 kts | 84° |
| 2026-05-07 15:57 | 55.09723 | -26.14290 | 34331 ft | 501 kts | 84° |
| 2026-05-07 15:58 | 55.09778 | -26.08245 | 34499 ft | 500 kts | 84° |
| 2026-05-07 15:58 | 55.09830 | -26.02175 | 34672 ft | 500 kts | 84° |
| 2026-05-07 15:58 | 55.09879 | -25.96111 | 34847 ft | 499 kts | 84° |
| 2026-05-07 15:58 | 55.09925 | -25.90071 | 34982 ft | 499 kts | 84° |
| 2026-05-07 15:59 | 55.09969 | -25.84009 | 35131 ft | 499 kts | 84° |
| 2026-05-07 15:59 | 55.10046 | -25.71932 | 35190 ft | 500 kts | 85° |
| 2026-05-07 16:00 | 55.10110 | -25.59930 | 35190 ft | 496 kts | 84° |
| 2026-05-07 16:00 | 55.10163 | -25.47908 | 35189 ft | 496 kts | 85° |
| 2026-05-07 16:01 | 55.10202 | -25.36844 | 35186 ft | 497 kts | 85° |
| 2026-05-07 16:01 | 55.10232 | -25.24830 | 35183 ft | 498 kts | 86° |
| 2026-05-07 16:02 | 55.10251 | -25.12777 | 35181 ft | 497 kts | 86° |
| 2026-05-07 16:02 | 55.10257 | -25.00789 | 35174 ft | 497 kts | 86° |
| 2026-05-07 16:03 | 55.10252 | -24.88765 | 35175 ft | 498 kts | 86° |
| 2026-05-07 16:03 | 55.10235 | -24.76709 | 35173 ft | 497 kts | 86° |
| 2026-05-07 16:04 | 55.10206 | -24.64766 | 35170 ft | 497 kts | 86° |
| 2026-05-07 16:04 | 55.10166 | -24.52702 | 35166 ft | 497 kts | 86° |
| 2026-05-07 16:05 | 55.10113 | -24.40728 | 35166 ft | 498 kts | 86° |
| 2026-05-07 16:05 | 55.10048 | -24.28638 | 35163 ft | 497 kts | 87° |
| 2026-05-07 16:06 | 55.09972 | -24.16621 | 35162 ft | 497 kts | 88° |
| 2026-05-07 16:06 | 55.09884 | -24.04629 | 35162 ft | 496 kts | 88° |
| 2026-05-07 16:07 | 55.09786 | -23.92696 | 35155 ft | 496 kts | 88° |
| 2026-05-07 16:07 | 55.09674 | -23.80680 | 35153 ft | 496 kts | 88° |
| 2026-05-07 16:08 | 55.09551 | -23.68705 | 35153 ft | 497 kts | 88° |
| 2026-05-07 16:08 | 55.09416 | -23.56705 | 35149 ft | 497 kts | 88° |
| 2026-05-07 16:09 | 55.09269 | -23.44683 | 35151 ft | 497 kts | 88° |
| 2026-05-07 16:09 | 55.09110 | -23.32631 | 35156 ft | 497 kts | 89° |
| 2026-05-07 16:10 | 55.08939 | -23.20644 | 35148 ft | 497 kts | 89° |
| 2026-05-07 16:10 | 55.08757 | -23.08631 | 35152 ft | 497 kts | 89° |
| 2026-05-07 16:11 | 55.08563 | -22.96623 | 35149 ft | 497 kts | 89° |
| 2026-05-07 16:11 | 55.08356 | -22.84592 | 35155 ft | 498 kts | 89° |
| 2026-05-07 16:12 | 55.08138 | -22.72583 | 35149 ft | 497 kts | 89° |
| 2026-05-07 16:12 | 55.07910 | -22.60629 | 35137 ft | 498 kts | 89° |
| 2026-05-07 16:13 | 55.07666 | -22.48541 | 35136 ft | 498 kts | 90° |
| 2026-05-07 16:13 | 55.07413 | -22.36537 | 35135 ft | 498 kts | 90° |
| 2026-05-07 16:14 | 55.07147 | -22.24506 | 35129 ft | 498 kts | 91° |
| 2026-05-07 16:14 | 55.06869 | -22.12482 | 35128 ft | 498 kts | 91° |
| 2026-05-07 16:15 | 55.06580 | -22.00485 | 35116 ft | 498 kts | 91° |
| 2026-05-07 16:15 | 55.06278 | -21.88408 | 35111 ft | 498 kts | 91° |
| 2026-05-07 16:16 | 55.05966 | -21.76439 | 35108 ft | 497 kts | 91° |
| 2026-05-07 16:16 | 55.05643 | -21.64476 | 35106 ft | 498 kts | 91° |
| 2026-05-07 16:17 | 55.05306 | -21.52444 | 35105 ft | 499 kts | 91° |
| 2026-05-07 16:17 | 55.04956 | -21.40396 | 35102 ft | 499 kts | 91° |
| 2026-05-07 16:18 | 55.04594 | -21.28357 | 35097 ft | 498 kts | 92° |
| 2026-05-07 16:18 | 55.04220 | -21.16286 | 35096 ft | 498 kts | 92° |
| 2026-05-07 16:19 | 55.03835 | -21.04250 | 35092 ft | 499 kts | 92° |
| 2026-05-07 16:19 | 55.03437 | -20.92177 | 35089 ft | 500 kts | 92° |
| 2026-05-07 16:20 | 55.03028 | -20.80139 | 35088 ft | 500 kts | 92° |
| 2026-05-07 16:20 | 55.02605 | -20.68042 | 35094 ft | 500 kts | 92° |
| 2026-05-07 16:21 | 55.02171 | -20.55989 | 35083 ft | 500 kts | 92° |
| 2026-05-07 16:21 | 55.01725 | -20.43933 | 35084 ft | 500 kts | 92° |
| 2026-05-07 16:22 | 55.01270 | -20.31930 | 35076 ft | 498 kts | 93° |
| 2026-05-07 16:22 | 55.00802 | -20.19929 | 35079 ft | 497 kts | 94° |
| 2026-05-07 16:23 | 55.00324 | -20.07999 | 35076 ft | 497 kts | 94° |
| 2026-05-07 16:23 | 54.99001 | -19.96216 | 35079 ft | 497 kts | 104° |
| 2026-05-07 16:24 | 54.97168 | -19.84633 | 35071 ft | 498 kts | 106° |
| 2026-05-07 16:24 | 54.95215 | -19.73140 | 35069 ft | 498 kts | 107° |
| 2026-05-07 16:25 | 54.93200 | -19.61654 | 35066 ft | 498 kts | 107° |
| 2026-05-07 16:25 | 54.91166 | -19.50240 | 35061 ft | 498 kts | 107° |
| 2026-05-07 16:26 | 54.89109 | -19.38810 | 35061 ft | 498 kts | 107° |
| 2026-05-07 16:26 | 54.87033 | -19.27362 | 35054 ft | 498 kts | 108° |
| 2026-05-07 16:27 | 54.84952 | -19.15958 | 35059 ft | 498 kts | 108° |
| 2026-05-07 16:27 | 54.82863 | -19.04587 | 35050 ft | 498 kts | 108° |
| 2026-05-07 16:28 | 54.80768 | -18.93248 | 35043 ft | 497 kts | 109° |
| 2026-05-07 16:28 | 54.78648 | -18.81851 | 35048 ft | 497 kts | 109° |
| 2026-05-07 16:29 | 54.76530 | -18.70527 | 35038 ft | 498 kts | 109° |
| 2026-05-07 16:29 | 54.74380 | -18.59105 | 35038 ft | 498 kts | 109° |
| 2026-05-07 16:30 | 54.72244 | -18.47823 | 35034 ft | 498 kts | 109° |
| 2026-05-07 16:30 | 54.70083 | -18.36477 | 35028 ft | 499 kts | 109° |
| 2026-05-07 16:31 | 54.67902 | -18.25092 | 35021 ft | 497 kts | 110° |
| 2026-05-07 16:31 | 54.65729 | -18.13818 | 35026 ft | 497 kts | 110° |
| 2026-05-07 16:32 | 54.63540 | -18.02528 | 35026 ft | 498 kts | 110° |
| 2026-05-07 16:32 | 54.61347 | -17.91286 | 35031 ft | 498 kts | 110° |
| 2026-05-07 16:33 | 54.59134 | -17.80005 | 35029 ft | 497 kts | 110° |
| 2026-05-07 16:33 | 54.56915 | -17.68758 | 35023 ft | 498 kts | 110° |
| 2026-05-07 16:34 | 54.54687 | -17.57528 | 35033 ft | 498 kts | 110° |
| 2026-05-07 16:34 | 54.52457 | -17.46355 | 35026 ft | 497 kts | 110° |
| 2026-05-07 16:35 | 54.50205 | -17.35139 | 35023 ft | 498 kts | 110° |
| 2026-05-07 16:35 | 54.47943 | -17.23934 | 35010 ft | 497 kts | 111° |
| 2026-05-07 16:36 | 54.45678 | -17.12777 | 35011 ft | 497 kts | 111° |
| 2026-05-07 16:36 | 54.43395 | -17.01596 | 35003 ft | 497 kts | 111° |
| 2026-05-07 16:37 | 54.41108 | -16.90459 | 35011 ft | 497 kts | 111° |
| 2026-05-07 16:37 | 54.38814 | -16.79345 | 35006 ft | 496 kts | 111° |
| 2026-05-07 16:38 | 54.36500 | -16.68201 | 35006 ft | 496 kts | 112° |
| 2026-05-07 16:38 | 54.34184 | -16.57111 | 35004 ft | 497 kts | 112° |
| 2026-05-07 16:39 | 54.31862 | -16.46048 | 35010 ft | 497 kts | 112° |
| 2026-05-07 16:39 | 54.29516 | -16.34934 | 34987 ft | 496 kts | 112° |
| 2026-05-07 16:40 | 54.27169 | -16.23878 | 34978 ft | 496 kts | 113° |
| 2026-05-07 16:40 | 54.24820 | -16.12870 | 35001 ft | 496 kts | 113° |
| 2026-05-07 16:41 | 54.22451 | -16.01827 | 34981 ft | 494 kts | 113° |
| 2026-05-07 16:41 | 54.20085 | -15.90862 | 34999 ft | 493 kts | 113° |
| 2026-05-07 16:42 | 54.17713 | -15.79926 | 34986 ft | 495 kts | 113° |
| 2026-05-07 16:42 | 54.15336 | -15.69020 | 34980 ft | 495 kts | 113° |
| 2026-05-07 16:43 | 54.12927 | -15.58031 | 34984 ft | 495 kts | 113° |
| 2026-05-07 16:43 | 54.10520 | -15.47108 | 34988 ft | 496 kts | 113° |
| 2026-05-07 16:44 | 54.08091 | -15.36142 | 34979 ft | 495 kts | 113° |
| 2026-05-07 16:44 | 54.05669 | -15.25264 | 34977 ft | 494 kts | 114° |
| 2026-05-07 16:45 | 54.03239 | -15.14409 | 34973 ft | 493 kts | 114° |
| 2026-05-07 16:45 | 54.00850 | -15.03527 | 34966 ft | 496 kts | 110° |
| 2026-05-07 16:46 | 53.99842 | -14.91921 | 34984 ft | 504 kts | 91° |
| 2026-05-07 16:46 | 53.99997 | -14.80091 | 34975 ft | 505 kts | 91° |
| 2026-05-07 16:47 | 54.00066 | -14.68217 | 34955 ft | 502 kts | 92° |
| 2026-05-07 16:47 | 54.00093 | -14.56428 | 34967 ft | 501 kts | 92° |
| 2026-05-07 16:48 | 54.00100 | -14.44584 | 34962 ft | 502 kts | 92° |
| 2026-05-07 16:48 | 54.00091 | -14.32856 | 34966 ft | 501 kts | 93° |
| 2026-05-07 16:49 | 54.00069 | -14.21065 | 34983 ft | 500 kts | 93° |
| 2026-05-07 16:49 | 54.00035 | -14.09288 | 34979 ft | 499 kts | 93° |
| 2026-05-07 16:50 | 53.99896 | -13.97604 | 34970 ft | 496 kts | 98° |
| 2026-05-07 16:50 | 53.99316 | -13.85962 | 34962 ft | 496 kts | 98° |
| 2026-05-07 16:51 | 53.98737 | -13.74376 | 34962 ft | 495 kts | 98° |
| 2026-05-07 16:51 | 53.98144 | -13.62727 | 34970 ft | 495 kts | 98° |
| 2026-05-07 16:52 | 53.97544 | -13.51160 | 34955 ft | 496 kts | 98° |
| 2026-05-07 16:52 | 53.96930 | -13.39528 | 34956 ft | 496 kts | 98° |
| 2026-05-07 16:53 | 53.96306 | -13.27916 | 34937 ft | 497 kts | 99° |
| 2026-05-07 16:53 | 53.95672 | -13.16333 | 34932 ft | 495 kts | 99° |
| 2026-05-07 16:54 | 53.95025 | -13.04723 | 34928 ft | 496 kts | 99° |
| 2026-05-07 16:54 | 53.94364 | -12.93083 | 34925 ft | 496 kts | 99° |
| 2026-05-07 16:55 | 53.93697 | -12.81523 | 34923 ft | 495 kts | 99° |
| 2026-05-07 16:55 | 53.93015 | -12.69901 | 34927 ft | 494 kts | 99° |
| 2026-05-07 16:56 | 53.92327 | -12.58360 | 34933 ft | 494 kts | 99° |
| 2026-05-07 16:56 | 53.91270 | -12.41019 | 34935 ft | 493 kts | 99° |
| 2026-05-07 16:57 | 53.90557 | -12.29525 | 34930 ft | 491 kts | 100° |
| 2026-05-07 16:57 | 53.89835 | -12.18097 | 34934 ft | 491 kts | 100° |
| 2026-05-07 16:58 | 53.89102 | -12.06645 | 34935 ft | 491 kts | 100° |
| 2026-05-07 16:58 | 53.88353 | -11.95139 | 34941 ft | 491 kts | 100° |
| 2026-05-07 16:59 | 53.87597 | -11.83676 | 34947 ft | 491 kts | 101° |
| 2026-05-07 16:59 | 53.86834 | -11.72280 | 34949 ft | 489 kts | 100° |
| 2026-05-07 17:00 | 53.86058 | -11.60869 | 34939 ft | 489 kts | 101° |
| 2026-05-07 17:00 | 53.85267 | -11.49398 | 34939 ft | 489 kts | 100° |
| 2026-05-07 17:01 | 53.84472 | -11.38038 | 34937 ft | 487 kts | 100° |
| 2026-05-07 17:01 | 53.83668 | -11.26687 | 34936 ft | 487 kts | 101° |
| 2026-05-07 17:02 | 53.82854 | -11.15358 | 34927 ft | 486 kts | 101° |
| 2026-05-07 17:02 | 53.82030 | -11.04040 | 34932 ft | 486 kts | 101° |
| 2026-05-07 17:03 | 53.81190 | -10.92658 | 34931 ft | 485 kts | 101° |
| 2026-05-07 17:03 | 53.80349 | -10.81408 | 34929 ft | 483 kts | 101° |
| 2026-05-07 17:04 | 53.79496 | -10.70146 | 34936 ft | 483 kts | 101° |
| 2026-05-07 17:04 | 53.78634 | -10.58911 | 34934 ft | 483 kts | 101° |
| 2026-05-07 17:05 | 53.77760 | -10.47662 | 34928 ft | 482 kts | 101° |
| 2026-05-07 17:05 | 53.76875 | -10.36414 | 34922 ft | 483 kts | 101° |
| 2026-05-07 17:06 | 53.76002 | -10.25453 | 34922 ft | 482 kts | 102° |
| 2026-05-07 17:06 | 53.75095 | -10.14193 | 34931 ft | 481 kts | 102° |
| 2026-05-07 17:07 | 53.74176 | -10.02910 | 34927 ft | 481 kts | 102° |
| 2026-05-07 17:07 | 53.73254 | -9.91741 | 34928 ft | 480 kts | 101° |
| 2026-05-07 17:08 | 53.72315 | -9.80489 | 34926 ft | 480 kts | 101° |
| 2026-05-07 17:08 | 53.71370 | -9.69305 | 34919 ft | 481 kts | 101° |
| 2026-05-07 17:09 | 53.70412 | -9.58086 | 34916 ft | 481 kts | 101° |
| 2026-05-07 17:09 | 53.69441 | -9.46838 | 34918 ft | 480 kts | 101° |
| 2026-05-07 17:10 | 53.68470 | -9.35724 | 34915 ft | 480 kts | 101° |
| 2026-05-07 17:10 | 53.67514 | -9.24904 | 34910 ft | 480 kts | 102° |
| 2026-05-07 17:11 | 53.66521 | -9.13780 | 34909 ft | 480 kts | 102° |
| 2026-05-07 17:11 | 53.65512 | -9.02601 | 34907 ft | 479 kts | 101° |
| 2026-05-07 17:12 | 53.64490 | -8.91396 | 34912 ft | 479 kts | 101° |
| 2026-05-07 17:12 | 53.63463 | -8.80256 | 34909 ft | 479 kts | 101° |
| 2026-05-07 17:13 | 53.62430 | -8.69160 | 34909 ft | 479 kts | 101° |
| 2026-05-07 17:13 | 53.61380 | -8.58014 | 34911 ft | 479 kts | 101° |
| 2026-05-07 17:14 | 53.60323 | -8.46905 | 34912 ft | 479 kts | 101° |
| 2026-05-07 17:14 | 53.59255 | -8.35776 | 34911 ft | 479 kts | 101° |
| 2026-05-07 17:15 | 53.58200 | -8.24909 | 34909 ft | 479 kts | 102° |
| 2026-05-07 17:15 | 53.57114 | -8.13829 | 34906 ft | 478 kts | 102° |
| 2026-05-07 17:16 | 53.56016 | -8.02747 | 34902 ft | 478 kts | 102° |
| 2026-05-07 17:16 | 53.54911 | -7.91680 | 34905 ft | 478 kts | 102° |
| 2026-05-07 17:17 | 53.53795 | -7.80629 | 34907 ft | 478 kts | 102° |
| 2026-05-07 17:17 | 53.52673 | -7.69614 | 34915 ft | 478 kts | 102° |
| 2026-05-07 17:18 | 53.51536 | -7.58568 | 34917 ft | 478 kts | 102° |
| 2026-05-07 17:18 | 53.50391 | -7.47538 | 34914 ft | 478 kts | 102° |
| 2026-05-07 17:19 | 53.49231 | -7.36477 | 34915 ft | 478 kts | 102° |
| 2026-05-07 17:19 | 53.48129 | -7.26058 | 34914 ft | 476 kts | 103° |
| 2026-05-07 17:20 | 53.46957 | -7.15079 | 34929 ft | 476 kts | 103° |
| 2026-05-07 17:20 | 53.45802 | -7.04354 | 34921 ft | 476 kts | 103° |
| 2026-05-07 17:21 | 53.44610 | -6.93387 | 34925 ft | 474 kts | 103° |
| 2026-05-07 17:21 | 53.43469 | -6.82981 | 34927 ft | 475 kts | 103° |
| 2026-05-07 17:22 | 53.42241 | -6.71884 | 34935 ft | 476 kts | 103° |
| 2026-05-07 17:22 | 53.41060 | -6.61290 | 34933 ft | 476 kts | 103° |
| 2026-05-07 17:23 | 53.39829 | -6.50347 | 34932 ft | 476 kts | 103° |
| 2026-05-07 17:23 | 53.38600 | -6.39525 | 34931 ft | 475 kts | 103° |
| 2026-05-07 17:24 | 53.37452 | -6.29485 | 34932 ft | 474 kts | 104° |
| 2026-05-07 17:24 | 53.36174 | -6.18410 | 34933 ft | 474 kts | 104° |
| 2026-05-07 17:25 | 53.34915 | -6.07594 | 34938 ft | 473 kts | 104° |
| 2026-05-07 17:25 | 53.33646 | -5.96781 | 34941 ft | 472 kts | 104° |
| 2026-05-07 17:26 | 53.32374 | -5.86033 | 34939 ft | 472 kts | 104° |
| 2026-05-07 17:26 | 53.31091 | -5.75273 | 34944 ft | 473 kts | 104° |
| 2026-05-07 17:27 | 53.29794 | -5.64487 | 34944 ft | 474 kts | 104° |
| 2026-05-07 17:27 | 53.28490 | -5.53730 | 34946 ft | 473 kts | 104° |
| 2026-05-07 17:28 | 53.27672 | -5.42819 | 34969 ft | 476 kts | 93° |
| 2026-05-07 17:28 | 53.27479 | -5.32470 | 34955 ft | 477 kts | 95° |
| 2026-05-07 17:29 | 53.27186 | -5.21278 | 34953 ft | 476 kts | 95° |
| 2026-05-07 17:29 | 53.26849 | -5.10243 | 34953 ft | 476 kts | 96° |
| 2026-05-07 17:30 | 53.26485 | -4.99134 | 34956 ft | 476 kts | 96° |
| 2026-05-07 17:30 | 53.26110 | -4.88090 | 34956 ft | 476 kts | 96° |
| 2026-05-07 17:31 | 53.25724 | -4.77066 | 34962 ft | 476 kts | 96° |
| 2026-05-07 17:31 | 53.25351 | -4.66076 | 34967 ft | 476 kts | 95° |
| 2026-05-07 17:32 | 53.25012 | -4.56089 | 34971 ft | 476 kts | 95° |
| 2026-05-07 17:32 | 53.24693 | -4.46909 | 34974 ft | 475 kts | 95° |
| 2026-05-07 17:33 | 53.24259 | -4.34742 | 34973 ft | 474 kts | 96° |
| 2026-05-07 17:33 | 53.23864 | -4.23969 | 34979 ft | 473 kts | 96° |
| 2026-05-07 17:34 | 53.23468 | -4.13406 | 34968 ft | 473 kts | 96° |
| 2026-05-07 17:34 | 53.23046 | -4.02449 | 34978 ft | 473 kts | 96° |
| 2026-05-07 17:35 | 53.22626 | -3.91929 | 34940 ft | 458 kts | 96° |
| 2026-05-07 17:35 | 53.22409 | -3.86627 | 34379 ft | 458 kts | 96° |
| 2026-05-07 17:35 | 53.22188 | -3.81327 | 33587 ft | 462 kts | 96° |
| 2026-05-07 17:36 | 53.21963 | -3.75982 | 32805 ft | 464 kts | 96° |
| 2026-05-07 17:36 | 53.21737 | -3.70635 | 32029 ft | 466 kts | 96° |
| 2026-05-07 17:36 | 53.21506 | -3.65250 | 31253 ft | 467 kts | 96° |
| 2026-05-07 17:36 | 53.21272 | -3.59855 | 30465 ft | 468 kts | 96° |
| 2026-05-07 17:37 | 53.21037 | -3.54515 | 29677 ft | 469 kts | 95° |
| 2026-05-07 17:37 | 53.20795 | -3.49062 | 28873 ft | 470 kts | 95° |
| 2026-05-07 17:37 | 53.20554 | -3.43689 | 28082 ft | 470 kts | 95° |
| 2026-05-07 17:37 | 53.20307 | -3.38236 | 27280 ft | 469 kts | 95° |
| 2026-05-07 17:38 | 53.20070 | -3.33056 | 26516 ft | 469 kts | 96° |
| 2026-05-07 17:38 | 53.19885 | -3.29045 | 25921 ft | 468 kts | 96° |
| 2026-05-07 17:38 | 53.19569 | -3.24498 | 25233 ft | 466 kts | 102° |